createdAt,value
2022-10-22T04:00:54.016Z,1.70
2022-10-22T04:03:25.719Z,1.30
2022-10-22T04:06:02.889Z,1.63
2022-10-22T04:08:35.210Z,1.60
2022-10-22T04:11:07.667Z,1.40
2022-10-22T04:13:39.730Z,1.20
2022-10-22T04:16:17.176Z,1.40
2022-10-22T04:18:50.351Z,1.30
2022-10-22T04:21:22.079Z,1.17
2022-10-22T04:23:54.153Z,1.37
2022-10-22T04:26:26.044Z,1.30
2022-10-22T04:28:57.718Z,1.50
2022-10-22T04:31:29.394Z,1.73
2022-10-22T04:34:01.739Z,1.73
2022-10-22T04:36:34.020Z,2.03
2022-10-22T04:39:06.302Z,1.20
2022-10-22T04:41:39.356Z,1.50
2022-10-22T04:44:15.988Z,1.60
2022-10-22T04:46:50.063Z,1.70
2022-10-22T04:49:21.795Z,1.47
2022-10-22T04:51:53.551Z,1.53
2022-10-22T04:54:27.803Z,1.43
2022-10-22T04:57:04.711Z,1.90
2022-10-22T04:59:36.480Z,1.70
2022-10-22T05:02:08.212Z,1.40
2022-10-22T05:04:39.897Z,1.60
2022-10-22T05:07:12.663Z,1.60
2022-10-22T05:09:44.547Z,1.60
2022-10-22T05:12:16.223Z,1.53
2022-10-22T05:14:47.939Z,1.30
2022-10-22T05:17:19.605Z,1.63
2022-10-22T05:19:51.371Z,1.33
2022-10-22T05:22:23.030Z,1.40
2022-10-22T05:24:54.699Z,1.70
2022-10-22T05:27:26.902Z,1.97
2022-10-22T05:29:58.726Z,1.70
2022-10-22T05:32:31.504Z,1.70
2022-10-22T05:35:05.558Z,1.87
2022-10-22T05:37:38.597Z,1.60
2022-10-22T05:40:26.663Z,1.80
2022-10-22T05:42:59.043Z,1.20
2022-10-22T05:45:30.750Z,1.57
2022-10-22T05:48:03.605Z,1.43
2022-10-22T05:50:39.210Z,1.70
2022-10-22T05:53:11.595Z,1.70
2022-10-22T05:55:43.287Z,1.73
2022-10-22T05:58:15.230Z,1.50
2022-10-22T06:00:46.904Z,1.43
2022-10-22T06:03:18.592Z,1.30
2022-10-22T06:05:50.274Z,1.27
2022-10-22T06:08:22.156Z,1.30
2022-10-22T06:10:54.360Z,1.53
2022-10-22T06:13:26.720Z,1.20
2022-10-22T06:15:58.835Z,1.63
2022-10-22T06:18:30.581Z,1.43
2022-10-22T06:21:10.768Z,1.23
2022-10-22T06:23:43.578Z,1.70
2022-10-22T06:26:17.739Z,1.43
2022-10-22T06:28:49.598Z,1.50
2022-10-22T06:31:21.297Z,1.40
2022-10-22T06:33:53.256Z,1.47
2022-10-22T06:36:25.028Z,1.20
2022-10-22T06:38:57.445Z,1.07
2022-10-22T06:41:30.171Z,1.47
2022-10-22T06:44:02.954Z,1.30
2022-10-22T06:46:34.732Z,1.50
2022-10-22T06:49:06.587Z,1.30
2022-10-22T06:51:38.248Z,1.70
2022-10-22T06:54:10.907Z,1.40
2022-10-22T06:56:42.779Z,1.90
2022-10-22T06:59:14.517Z,1.70
2022-10-22T07:01:46.471Z,1.30
2022-10-22T07:04:19.800Z,2.87
2022-10-22T07:06:55.321Z,1.97
2022-10-22T07:09:28.196Z,1.40
2022-10-22T07:12:00.058Z,1.60
2022-10-22T07:14:31.911Z,1.43
2022-10-22T07:17:03.725Z,1.47
2022-10-22T07:19:36.074Z,1.40
2022-10-22T07:22:08.865Z,1.40
2022-10-22T07:24:40.579Z,1.70
2022-10-22T07:27:12.334Z,2.20
2022-10-22T07:29:44.038Z,2.00
2022-10-22T07:32:15.771Z,1.70
2022-10-22T07:34:47.454Z,1.60
2022-10-22T07:37:21.912Z,2.20
2022-10-22T07:39:53.740Z,1.40
2022-10-22T07:42:25.547Z,1.53
2022-10-22T07:44:57.344Z,4.77
2022-10-22T07:47:29.020Z,2.00
2022-10-22T07:50:00.734Z,1.83
2022-10-22T07:52:32.524Z,1.80
2022-10-22T07:55:05.873Z,1.50
2022-10-22T07:57:37.560Z,2.90
2022-10-22T08:00:10.083Z,1.80
2022-10-22T08:02:42.028Z,1.90
2022-10-22T08:05:14.003Z,1.50
2022-10-22T08:07:45.854Z,1.97
2022-10-22T08:10:17.686Z,2.47
2022-10-22T08:12:49.451Z,1.90
2022-10-22T08:15:23.164Z,2.40
2022-10-22T08:17:54.874Z,1.63
2022-10-22T08:20:26.943Z,1.73
2022-10-22T08:22:59.413Z,1.73
2022-10-22T08:25:31.450Z,2.10
2022-10-22T08:28:03.256Z,2.23
2022-10-22T08:30:37.867Z,2.03
2022-10-22T08:33:09.707Z,2.67
2022-10-22T08:35:41.366Z,2.33
2022-10-22T08:38:13.035Z,2.30
2022-10-22T08:44:09.527Z,2.37
2022-10-22T08:46:56.270Z,2.57
2022-10-22T08:49:37.141Z,2.47
2022-10-22T08:52:17.623Z,2.50
2022-10-22T08:54:52.702Z,2.50
2022-10-22T08:57:49.902Z,2.37
2022-10-22T09:00:36.417Z,2.23
2022-10-22T09:03:38.946Z,2.20
2022-10-22T09:06:18.700Z,2.37
2022-10-22T09:08:51.837Z,2.30
2022-10-22T09:11:38.864Z,2.30
2022-10-22T09:17:13.066Z,2.23
2022-10-22T09:20:11.367Z,1.73
2022-10-22T09:23:12.559Z,1.97
2022-10-22T09:25:46.823Z,1.70
2022-10-22T09:28:19.610Z,1.40
2022-10-22T09:30:51.628Z,1.63
2022-10-22T09:33:30.716Z,1.50
2022-10-22T09:36:05.801Z,1.73
2022-10-22T09:38:45.166Z,1.60
2022-10-22T09:41:17.447Z,1.83
2022-10-22T09:43:50.122Z,2.03
2022-10-22T09:46:28.127Z,1.40
2022-10-22T09:49:09.292Z,2.63
2022-10-22T09:51:47.294Z,1.73
2022-10-22T09:54:20.792Z,1.50
2022-10-22T09:56:58.786Z,1.33
2022-10-22T09:59:38.902Z,1.60
2022-10-22T10:02:37.964Z,1.10
2022-10-22T10:05:19.697Z,1.60
2022-10-22T10:07:51.457Z,1.10
2022-10-22T10:10:41.154Z,1.47
2022-10-22T10:14:11.674Z,1.40
2022-10-22T10:17:28.078Z,1.10
2022-10-22T10:20:32.189Z,1.30
2022-10-22T10:23:24.441Z,1.33
2022-10-22T10:26:02.595Z,1.20
2022-10-22T10:28:51.308Z,1.50
2022-10-22T10:31:38.185Z,1.50
2022-10-22T10:34:21.898Z,1.70
2022-10-22T10:37:04.572Z,1.73
2022-10-22T10:39:51.311Z,1.50
2022-10-22T10:42:41.116Z,2.00
2022-10-22T10:45:24.196Z,1.30
2022-10-22T10:48:22.123Z,1.38
2022-10-22T10:51:18.569Z,1.33
2022-10-22T10:54:05.278Z,1.55
2022-10-22T10:56:55.345Z,1.35
2022-10-22T10:59:48.764Z,1.70
2022-10-22T11:02:39.403Z,1.70
2022-10-22T11:05:37.298Z,1.15
2022-10-22T11:08:22.738Z,1.45
2022-10-22T11:11:08.767Z,1.58
2022-10-22T11:13:48.346Z,1.50
2022-10-22T11:16:20.075Z,1.63
2022-10-22T11:19:22.821Z,1.60
2022-10-22T11:22:35.075Z,1.40
2022-10-22T11:25:18.368Z,1.50
2022-10-22T11:28:11.319Z,1.40
2022-10-22T11:30:48.543Z,1.50
2022-10-22T11:33:24.755Z,2.03
2022-10-22T11:35:59.402Z,1.80
2022-10-22T11:38:32.867Z,1.87
2022-10-22T11:41:16.745Z,1.90
2022-10-22T11:44:07.224Z,2.00
2022-10-22T11:47:08.409Z,2.50
2022-10-22T11:49:45.792Z,1.70
2022-10-22T11:52:26.595Z,1.50
2022-10-22T11:55:02.866Z,2.00
2022-10-22T11:57:39.343Z,1.80
2022-10-22T12:00:35.589Z,1.70
2022-10-22T12:03:30.703Z,1.60
2022-10-22T12:06:12.684Z,1.90
2022-10-22T12:08:46.616Z,1.77
2022-10-22T12:11:37.224Z,2.00
2022-10-22T12:14:21.566Z,1.30
2022-10-22T12:16:58.005Z,1.40
2022-10-22T12:19:37.347Z,1.77
2022-10-22T12:22:23.409Z,1.50
2022-10-22T12:25:00.928Z,1.73
2022-10-22T12:27:39.013Z,1.30
2022-10-22T12:30:24.578Z,1.43
2022-10-22T12:33:02.580Z,1.40
2022-10-22T12:35:42.836Z,1.40
2022-10-22T12:38:20.327Z,1.03
2022-10-22T12:40:55.787Z,1.97
2022-10-22T12:43:31.203Z,1.53
2022-10-22T12:46:02.922Z,1.83
2022-10-22T12:48:39.611Z,1.47
2022-10-22T12:51:20.394Z,1.53
2022-10-22T12:53:58.105Z,1.47
2022-10-22T12:56:33.128Z,2.13
2022-10-22T12:59:26.375Z,2.37
2022-10-22T13:01:58.923Z,1.47
2022-10-22T13:04:38.241Z,1.30
2022-10-22T13:07:13.712Z,1.37
2022-10-22T13:09:58.086Z,1.43
2022-10-22T13:12:36.601Z,1.40
2022-10-22T13:15:27.094Z,2.07
2022-10-22T13:18:19.247Z,1.33
2022-10-22T13:21:02.577Z,1.70
2022-10-22T13:23:34.973Z,1.77
2022-10-22T13:26:14.979Z,1.30
2022-10-22T13:28:55.295Z,1.57
2022-10-22T13:31:33.590Z,1.53
2022-10-22T13:34:11.759Z,1.50
2022-10-22T13:36:46.172Z,1.60
2022-10-22T13:39:23.875Z,2.00
2022-10-22T13:41:55.645Z,1.43
2022-10-22T13:44:27.324Z,1.70
2022-10-22T13:46:58.984Z,1.50
2022-10-22T13:49:30.729Z,1.50
2022-10-22T13:52:02.580Z,1.43
2022-10-22T13:54:35.280Z,1.67
2022-10-22T13:57:10.487Z,2.03
2022-10-22T13:59:42.177Z,1.63
2022-10-22T14:02:16.415Z,1.40
2022-10-22T14:04:48.118Z,2.17
2022-10-22T14:07:19.939Z,2.20
2022-10-22T14:09:51.752Z,1.73
2022-10-22T14:12:23.455Z,2.43
2022-10-22T14:14:55.132Z,3.47
2022-10-22T14:17:27.691Z,2.20
2022-10-22T14:20:00.068Z,2.47
2022-10-22T14:22:32.074Z,1.80
2022-10-22T14:25:03.890Z,2.20
2022-10-22T14:27:35.613Z,1.90
2022-10-22T14:30:07.976Z,1.70
2022-10-22T14:32:39.927Z,2.27
2022-10-22T14:35:14.185Z,2.10
2022-10-22T14:37:45.914Z,1.77
2022-10-22T14:40:19.873Z,2.70
2022-10-22T14:42:52.322Z,4.10
2022-10-22T14:45:26.123Z,6.87
2022-10-22T14:47:58.237Z,1.57
2022-10-22T14:50:30.035Z,1.40
2022-10-22T14:53:01.724Z,2.03
2022-10-22T14:55:33.563Z,2.47
2022-10-22T14:58:05.268Z,2.30
2022-10-22T15:00:37.067Z,1.80
2022-10-22T15:03:09.461Z,2.30
2022-10-22T15:05:44.332Z,1.80
2022-10-22T15:08:16.621Z,2.80
2022-10-22T15:10:59.342Z,2.50
2022-10-22T15:13:31.503Z,2.00
2022-10-22T15:16:09.223Z,2.63
2022-10-22T15:18:40.936Z,2.40
2022-10-22T15:21:20.608Z,1.90
2022-10-22T15:23:52.446Z,4.10
2022-10-22T15:26:24.385Z,3.67
2022-10-22T15:28:56.120Z,3.10
2022-10-22T15:31:54.539Z,2.03
2022-10-22T15:34:32.301Z,2.33
2022-10-22T15:37:06.270Z,2.10
2022-10-22T15:39:42.027Z,1.83
2022-10-22T15:42:14.586Z,2.20
2022-10-22T15:44:46.300Z,2.87
2022-10-22T15:47:18.124Z,2.13
2022-10-22T15:49:49.800Z,2.77
2022-10-22T15:52:21.735Z,2.57
2022-10-22T15:54:53.640Z,2.13
2022-10-22T15:57:25.415Z,2.53
2022-10-22T15:59:58.409Z,2.63
2022-10-22T16:02:30.117Z,2.37
2022-10-22T16:05:01.976Z,3.20
2022-10-22T16:07:37.878Z,2.70
2022-10-22T16:10:12.835Z,2.30
2022-10-22T16:12:45.708Z,3.10
2022-10-22T16:15:17.654Z,2.80
2022-10-22T16:17:51.408Z,2.37
2022-10-22T16:20:23.059Z,2.77
2022-10-22T16:22:54.790Z,2.40
2022-10-22T16:25:28.641Z,2.30
2022-10-22T16:28:00.411Z,2.23
2022-10-22T16:30:36.885Z,2.20
2022-10-22T16:33:09.705Z,2.47
2022-10-22T16:35:42.576Z,1.60
2022-10-22T16:38:14.251Z,2.70
2022-10-22T16:40:46.060Z,2.30
2022-10-22T16:43:17.771Z,2.93
2022-10-22T16:45:50.294Z,3.93
2022-10-22T16:48:21.971Z,2.77
2022-10-22T16:50:53.759Z,2.17
2022-10-22T16:53:25.489Z,3.13
2022-10-22T16:55:57.210Z,3.47
2022-10-22T16:58:29.261Z,2.30
2022-10-22T17:01:05.059Z,2.60
2022-10-22T17:03:37.338Z,2.97
2022-10-22T17:06:09.177Z,3.27
2022-10-22T17:08:41.829Z,2.40
2022-10-22T17:11:19.053Z,2.67
2022-10-22T17:13:52.952Z,2.80
2022-10-22T17:16:25.067Z,3.10
2022-10-22T17:18:58.099Z,2.83
2022-10-22T17:21:29.818Z,2.60
2022-10-22T17:24:01.497Z,2.20
2022-10-22T17:26:34.544Z,3.07
2022-10-22T17:29:06.800Z,2.47
2022-10-22T17:31:39.792Z,8.20
2022-10-22T17:34:16.629Z,5.17
2022-10-22T17:36:48.376Z,6.50
2022-10-22T17:39:20.111Z,7.03
2022-10-22T17:41:52.210Z,5.00
2022-10-22T17:44:23.940Z,3.90
2022-10-22T17:46:56.275Z,3.07
2022-10-22T17:49:28.080Z,3.20
2022-10-22T17:54:33.805Z,2.73
2022-10-22T17:57:05.820Z,3.10
2022-10-22T17:59:37.573Z,4.30
2022-10-22T18:02:16.647Z,4.20
2022-10-22T18:04:52.316Z,4.57
2022-10-22T18:07:24.077Z,3.07
2022-10-22T18:09:55.878Z,3.83
2022-10-22T18:12:27.677Z,3.33
2022-10-22T18:14:59.378Z,4.63
2022-10-22T18:17:32.645Z,5.90
2022-10-22T18:20:07.186Z,5.70
2022-10-22T18:22:41.319Z,4.90
2022-10-22T18:25:13.145Z,4.90
2022-10-22T18:27:45.887Z,4.40
2022-10-22T18:30:18.654Z,3.53
2022-10-22T18:32:51.730Z,3.90
2022-10-22T18:35:23.440Z,4.80
2022-10-22T18:37:55.125Z,4.00
2022-10-22T18:40:26.927Z,3.40
2022-10-22T18:42:58.800Z,3.37
2022-10-22T18:45:30.531Z,3.80
2022-10-22T18:48:03.160Z,3.83
2022-10-22T18:50:34.850Z,3.97
2022-10-22T18:53:06.734Z,4.07
2022-10-22T18:55:39.779Z,3.00
2022-10-22T18:58:11.462Z,3.47
2022-10-22T19:00:43.396Z,2.80
2022-10-22T19:03:15.176Z,3.30
2022-10-22T19:05:52.368Z,2.70
2022-10-22T19:08:24.056Z,3.23
2022-10-22T19:10:55.800Z,3.80
2022-10-22T19:13:28.414Z,3.07
2022-10-22T19:16:05.521Z,3.67
2022-10-22T19:18:38.587Z,4.20
2022-10-22T19:21:12.060Z,3.53
2022-10-22T19:26:24.039Z,3.83
2022-10-22T19:28:57.315Z,4.93
2022-10-22T19:31:30.083Z,3.97
2022-10-22T19:34:02.272Z,4.10
2022-10-22T19:36:35.296Z,4.50
2022-10-22T19:39:07.692Z,5.43
2022-10-22T19:41:39.435Z,4.90
2022-10-22T19:44:11.503Z,4.70
2022-10-22T19:46:43.265Z,3.97
2022-10-22T19:49:18.938Z,4.10
2022-10-22T19:51:53.799Z,4.17
2022-10-22T19:54:25.530Z,4.03
2022-10-22T19:56:57.379Z,5.50
2022-10-22T19:59:31.458Z,4.70
2022-10-22T20:02:04.037Z,5.90
2022-10-22T20:04:36.232Z,4.60
2022-10-22T20:07:08.311Z,5.03
2022-10-22T20:09:40.103Z,4.97
2022-10-22T20:12:11.840Z,4.70
2022-10-22T20:14:43.567Z,4.80
2022-10-22T20:17:15.764Z,4.40
2022-10-22T20:19:47.521Z,5.30
2022-10-22T20:22:19.304Z,4.97
2022-10-22T20:24:51.112Z,5.20
2022-10-22T20:27:22.861Z,4.20
2022-10-22T20:29:54.547Z,5.60
2022-10-22T20:32:27.963Z,4.70
2022-10-22T20:34:59.666Z,4.20
2022-10-22T20:37:31.393Z,3.73
2022-10-22T20:40:03.302Z,4.10
2022-10-22T20:42:35.302Z,5.13
2022-10-22T20:45:07.750Z,4.40
2022-10-22T20:47:51.187Z,3.60
2022-10-22T20:50:31.263Z,3.43
2022-10-22T20:53:02.969Z,3.50
2022-10-22T20:55:34.930Z,4.20
2022-10-22T20:58:06.613Z,3.20
2022-10-22T21:00:39.533Z,4.83
2022-10-22T21:03:12.447Z,4.30
2022-10-22T21:05:44.208Z,4.50
2022-10-22T21:08:18.755Z,3.90
2022-10-22T21:10:50.411Z,4.87
2022-10-22T21:13:22.219Z,5.60
2022-10-22T21:15:53.866Z,4.23
2022-10-22T21:18:25.583Z,4.43
2022-10-22T21:20:58.295Z,5.10
2022-10-22T21:23:29.993Z,4.33
2022-10-22T21:26:02.159Z,4.80
2022-10-22T21:28:36.131Z,5.00
2022-10-22T21:31:10.000Z,5.30
2022-10-22T21:33:41.691Z,5.10
2022-10-22T21:36:13.415Z,4.73
2022-10-22T21:38:45.243Z,4.30
2022-10-22T21:41:18.938Z,4.77
2022-10-22T21:43:51.132Z,4.50
2022-10-22T21:46:25.093Z,4.90
2022-10-22T21:49:01.981Z,5.40
2022-10-22T21:51:35.788Z,6.07
2022-10-22T21:54:07.682Z,4.93
2022-10-22T21:56:40.452Z,8.73
2022-10-22T21:59:12.371Z,15.43
2022-10-22T22:01:44.155Z,8.20
2022-10-22T22:04:15.886Z,4.87
2022-10-22T22:06:47.591Z,5.20
2022-10-22T22:09:19.739Z,4.67
2022-10-22T22:11:51.516Z,4.77
2022-10-22T22:14:23.387Z,3.90
2022-10-22T22:16:55.067Z,4.30
2022-10-22T22:19:26.845Z,4.60
2022-10-22T22:21:58.681Z,4.47
2022-10-22T22:24:30.444Z,4.50
2022-10-22T22:27:02.187Z,4.97
2022-10-22T22:29:34.775Z,5.30
2022-10-22T22:32:06.570Z,4.47
2022-10-22T22:34:38.228Z,4.43
2022-10-22T22:37:09.961Z,4.53
2022-10-22T22:39:41.719Z,4.20
2022-10-22T22:42:13.432Z,4.50
2022-10-22T22:44:45.195Z,4.80
2022-10-22T22:47:16.899Z,5.00
2022-10-22T22:49:48.647Z,4.30
2022-10-22T22:54:52.975Z,4.70
2022-10-22T22:57:24.786Z,5.10
2022-10-22T22:59:56.658Z,5.33
2022-10-22T23:02:28.365Z,6.60
2022-10-22T23:05:00.157Z,6.23
2022-10-22T23:07:31.962Z,4.97
2022-10-22T23:10:04.168Z,5.70
2022-10-22T23:12:35.989Z,5.57
2022-10-22T23:15:09.096Z,4.93
2022-10-22T23:17:40.886Z,4.90
2022-10-22T23:20:12.620Z,4.73
2022-10-22T23:22:44.626Z,5.43
2022-10-22T23:25:16.559Z,6.03
2022-10-22T23:27:48.253Z,5.37
2022-10-22T23:30:20.052Z,8.07
2022-10-22T23:32:51.870Z,8.57
2022-10-22T23:35:23.555Z,8.10
2022-10-22T23:37:55.248Z,6.90
2022-10-22T23:40:26.970Z,6.10
2022-10-22T23:42:58.766Z,6.13
2022-10-22T23:45:33.412Z,5.20
2022-10-22T23:48:06.191Z,4.50
2022-10-22T23:50:38.099Z,5.00
2022-10-22T23:53:09.964Z,4.77
2022-10-22T23:55:43.599Z,4.97
2022-10-22T23:58:15.479Z,5.07
